sensor_id;sensor_type;location;lat;lon;timestamp;pressure;altitude;pressure_sealevel;temperature;humidity
76124;BME280;65173;48.066;20.976;2023-06-22T00:02:29;100562.28;;;20.73;100.00
76124;BME280;65173;48.066;20.976;2023-06-22T00:05:32;100552.00;;;20.93;100.00
76124;BME280;65173;48.066;20.976;2023-06-22T00:08:34;100552.03;;;21.00;100.00
76124;BME280;65173;48.066;20.976;2023-06-22T00:11:37;100554.47;;;21.15;100.00
76124;BME280;65173;48.066;20.976;2023-06-22T00:14:40;100563.84;;;21.22;100.00
76124;BME280;65173;48.066;20.976;2023-06-22T00:17:43;100587.03;;;21.19;100.00
76124;BME280;65173;48.066;20.976;2023-06-22T00:20:46;100601.41;;;21.23;100.00
76124;BME280;65173;48.066;20.976;2023-06-22T00:23:49;100604.31;;;21.00;100.00
76124;BME280;65173;48.066;20.976;2023-06-22T00:26:51;100608.47;;;20.87;100.00
76124;BME280;65173;48.066;20.976;2023-06-22T00:29:54;100604.53;;;20.77;100.00
76124;BME280;65173;48.066;20.976;2023-06-22T00:32:57;100611.47;;;20.78;100.00
76124;BME280;65173;48.066;20.976;2023-06-22T00:36:01;100604.28;;;20.97;100.00
76124;BME280;65173;48.066;20.976;2023-06-22T00:39:05;100607.13;;;21.11;100.00
76124;BME280;65173;48.066;20.976;2023-06-22T00:42:09;100616.03;;;21.15;100.00
76124;BME280;65173;48.066;20.976;2023-06-22T00:45:13;100613.31;;;21.11;100.00
76124;BME280;65173;48.066;20.976;2023-06-22T00:48:15;100609.06;;;21.14;100.00
76124;BME280;65173;48.066;20.976;2023-06-22T00:51:19;100622.28;;;21.19;100.00
76124;BME280;65173;48.066;20.976;2023-06-22T00:54:26;100610.22;;;21.13;100.00
76124;BME280;65173;48.066;20.976;2023-06-22T00:57:31;100602.47;;;21.15;100.00
76124;BME280;65173;48.066;20.976;2023-06-22T01:00:34;100586.03;;;20.90;100.00
76124;BME280;65173;48.066;20.976;2023-06-22T01:03:37;100588.00;;;20.97;100.00
76124;BME280;65173;48.066;20.976;2023-06-22T01:10:25;100609.94;;;21.22;100.00
76124;BME280;65173;48.066;20.976;2023-06-22T01:13:45;100601.41;;;21.23;100.00
76124;BME280;65173;48.066;20.976;2023-06-22T01:16:51;100589.00;;;21.22;100.00
76124;BME280;65173;48.066;20.976;2023-06-22T01:19:56;100583.22;;;21.24;100.00
76124;BME280;65173;48.066;20.976;2023-06-22T01:26:20;100576.63;;;21.21;100.00
76124;BME280;65173;48.066;20.976;2023-06-22T01:29:25;100581.69;;;21.26;100.00
76124;BME280;65173;48.066;20.976;2023-06-22T01:32:33;100565.31;;;21.15;100.00
76124;BME280;65173;48.066;20.976;2023-06-22T01:35:37;100564.94;;;21.13;100.00
76124;BME280;65173;48.066;20.976;2023-06-22T01:38:41;100558.28;;;21.07;100.00
76124;BME280;65173;48.066;20.976;2023-06-22T01:41:47;100546.22;;;20.50;100.00
76124;BME280;65173;48.066;20.976;2023-06-22T01:44:52;100538.59;;;20.26;100.00
76124;BME280;65173;48.066;20.976;2023-06-22T01:47:55;100532.81;;;20.24;100.00
76124;BME280;65173;48.066;20.976;2023-06-22T01:50:58;100544.63;;;20.45;100.00
76124;BME280;65173;48.066;20.976;2023-06-22T01:54:02;100545.47;;;20.53;100.00
76124;BME280;65173;48.066;20.976;2023-06-22T01:57:05;100541.63;;;20.54;100.00
76124;BME280;65173;48.066;20.976;2023-06-22T02:00:15;100537.63;;;20.41;100.00
76124;BME280;65173;48.066;20.976;2023-06-22T02:03:33;100548.94;;;20.50;100.00
76124;BME280;65173;48.066;20.976;2023-06-22T02:06:39;100547.00;;;20.51;100.00
76124;BME280;65173;48.066;20.976;2023-06-22T02:09:47;100548.94;;;20.50;100.00
76124;BME280;65173;48.066;20.976;2023-06-22T02:12:51;100555.59;;;20.60;100.00
76124;BME280;65173;48.066;20.976;2023-06-22T02:15:54;100546.22;;;20.50;100.00
76124;BME280;65173;48.066;20.976;2023-06-22T02:19:00;100549.00;;;20.57;100.00
76124;BME280;65173;48.066;20.976;2023-06-22T02:22:05;100547.91;;;20.65;100.00
76124;BME280;65173;48.066;20.976;2023-06-22T02:25:08;100549.88;;;20.68;100.00
76124;BME280;65173;48.066;20.976;2023-06-22T02:28:11;100549.41;;;20.63;100.00
76124;BME280;65173;48.066;20.976;2023-06-22T02:31:13;100554.41;;;20.57;100.00
76124;BME280;65173;48.066;20.976;2023-06-22T02:34:16;100556.69;;;20.52;100.00
76124;BME280;65173;48.066;20.976;2023-06-22T02:37:20;100566.44;;;20.60;100.00
76124;BME280;65173;48.066;20.976;2023-06-22T02:40:27;100581.00;;;20.48;100.00
76124;BME280;65173;48.066;20.976;2023-06-22T02:43:31;100577.84;;;20.42;100.00
76124;BME280;65173;48.066;20.976;2023-06-22T02:46:34;100574.00;;;20.43;100.00
76124;BME280;65173;48.066;20.976;2023-06-22T02:49:38;100583.63;;;20.37;100.00
76124;BME280;65173;48.066;20.976;2023-06-22T02:52:41;100598.78;;;20.45;100.00
76124;BME280;65173;48.066;20.976;2023-06-22T02:55:44;100603.19;;;20.27;100.00
76124;BME280;65173;48.066;20.976;2023-06-22T02:58:46;100610.34;;;20.09;100.00
76124;BME280;65173;48.066;20.976;2023-06-22T03:01:49;100614.78;;;20.24;100.00
76124;BME280;65173;48.066;20.976;2023-06-22T03:05:02;100606.00;;;20.34;100.00
76124;BME280;65173;48.066;20.976;2023-06-22T03:08:06;100599.97;;;20.48;100.00
76124;BME280;65173;48.066;20.976;2023-06-22T03:11:10;100605.06;;;20.53;100.00
76124;BME280;65173;48.066;20.976;2023-06-22T03:14:12;100617.03;;;20.52;100.00
76124;BME280;65173;48.066;20.976;2023-06-22T03:17:15;100625.97;;;20.56;100.00
76124;BME280;65173;48.066;20.976;2023-06-22T03:20:18;100626.41;;;20.58;100.00
76124;BME280;65173;48.066;20.976;2023-06-22T03:23:22;100633.06;;;20.68;100.00
76124;BME280;65173;48.066;20.976;2023-06-22T03:26:24;100634.97;;;20.67;100.00
76124;BME280;65173;48.066;20.976;2023-06-22T03:29:29;100640.53;;;20.41;100.00
76124;BME280;65173;48.066;20.976;2023-06-22T03:32:32;100646.31;;;20.43;100.00
76124;BME280;65173;48.066;20.976;2023-06-22T03:35:35;100659.56;;;20.18;100.00
76124;BME280;65173;48.066;20.976;2023-06-22T03:38:38;100664.50;;;19.83;100.00
76124;BME280;65173;48.066;20.976;2023-06-22T03:41:44;100675.59;;;19.74;100.00
76124;BME280;65173;48.066;20.976;2023-06-22T03:44:47;100670.84;;;19.94;100.00
76124;BME280;65173;48.066;20.976;2023-06-22T03:47:50;100668.03;;;20.17;100.00
76124;BME280;65173;48.066;20.976;2023-06-22T03:50:53;100663.81;;;20.49;100.00
76124;BME280;65173;48.066;20.976;2023-06-22T03:53:56;100662.75;;;20.61;100.00
76124;BME280;65173;48.066;20.976;2023-06-22T03:56:58;100667.41;;;20.60;100.00
76124;BME280;65173;48.066;20.976;2023-06-22T04:00:01;100667.81;;;20.59;100.00
76124;BME280;65173;48.066;20.976;2023-06-22T04:03:14;100660.56;;;20.70;100.00
76124;BME280;65173;48.066;20.976;2023-06-22T04:06:17;100656.03;;;20.85;100.00
76124;BME280;65173;48.066;20.976;2023-06-22T04:09:19;100660.72;;;20.88;100.00
76124;BME280;65173;48.066;20.976;2023-06-22T04:12:24;100670.34;;;20.82;100.00
76124;BME280;65173;48.066;20.976;2023-06-22T04:15:26;100666.84;;;20.81;100.00
76124;BME280;65173;48.066;20.976;2023-06-22T04:18:29;100682.19;;;20.66;100.00
76124;BME280;65173;48.066;20.976;2023-06-22T04:21:32;100670.66;;;20.73;100.00
76124;BME280;65173;48.066;20.976;2023-06-22T04:24:34;100673.09;;;20.85;100.00
76124;BME280;65173;48.066;20.976;2023-06-22T04:27:37;100673.94;;;20.93;100.00
76124;BME280;65173;48.066;20.976;2023-06-22T04:30:42;100663.63;;;21.09;100.00
76124;BME280;65173;48.066;20.976;2023-06-22T04:33:49;100660.56;;;21.14;100.00
76124;BME280;65173;48.066;20.976;2023-06-22T04:36:53;100654.56;;;21.35;100.00
76124;BME280;65173;48.066;20.976;2023-06-22T04:39:57;100660.09;;;21.53;100.00
76124;BME280;65173;48.066;20.976;2023-06-22T04:42:59;100664.41;;;21.57;100.00
76124;BME280;65173;48.066;20.976;2023-06-22T04:46:04;100661.03;;;21.74;100.00
76124;BME280;65173;48.066;20.976;2023-06-22T04:49:08;100659.03;;;21.68;100.00
76124;BME280;65173;48.066;20.976;2023-06-22T04:52:14;100660.31;;;21.88;100.00
76124;BME280;65173;48.066;20.976;2023-06-22T04:55:20;100661.25;;;22.10;100.00
76124;BME280;65173;48.066;20.976;2023-06-22T04:58:23;100670.91;;;22.04;100.00
76124;BME280;65173;48.066;20.976;2023-06-22T05:01:31;100669.84;;;22.30;100.00
76124;BME280;65173;48.066;20.976;2023-06-22T05:04:34;100676.41;;;22.18;100.00
76124;BME280;65173;48.066;20.976;2023-06-22T05:07:45;100675.25;;;22.23;100.00
76124;BME280;65173;48.066;20.976;2023-06-22T05:10:50;100680.41;;;22.49;100.00
76124;BME280;65173;48.066;20.976;2023-06-22T05:14:06;100692.13;;;22.74;100.00
76124;BME280;65173;48.066;20.976;2023-06-22T05:17:11;100689.41;;;22.78;100.00
76124;BME280;65173;48.066;20.976;2023-06-22T05:20:17;100693.34;;;22.88;100.00
76124;BME280;65173;48.066;20.976;2023-06-22T05:23:20;100698.78;;;23.02;100.00
76124;BME280;65173;48.066;20.976;2023-06-22T05:26:24;100696.47;;;23.04;100.00
76124;BME280;65173;48.066;20.976;2023-06-22T05:29:27;100696.84;;;23.02;100.00
76124;BME280;65173;48.066;20.976;2023-06-22T05:32:29;100694.13;;;23.13;100.00
76124;BME280;65173;48.066;20.976;2023-06-22T05:35:32;100694.16;;;23.24;100.00
76124;BME280;65173;48.066;20.976;2023-06-22T05:38:35;100693.75;;;23.29;100.00
76124;BME280;65173;48.066;20.976;2023-06-22T05:41:38;100699.56;;;23.38;100.00
76124;BME280;65173;48.066;20.976;2023-06-22T05:44:40;100700.75;;;23.54;100.00
76124;BME280;65173;48.066;20.976;2023-06-22T05:47:43;100705.41;;;23.75;100.00
76124;BME280;65173;48.066;20.976;2023-06-22T05:50:46;100708.47;;;23.84;100.00
76124;BME280;65173;48.066;20.976;2023-06-22T05:53:49;100711.19;;;23.95;100.00
76124;BME280;65173;48.066;20.976;2023-06-22T05:56:52;100705.75;;;23.95;100.00
76124;BME280;65173;48.066;20.976;2023-06-22T05:59:54;100708.09;;;23.86;100.00
76124;BME280;65173;48.066;20.976;2023-06-22T06:02:57;100705.31;;;24.14;100.00
76124;BME280;65173;48.066;20.976;2023-06-22T06:06:09;100704.50;;;24.32;100.00
76124;BME280;65173;48.066;20.976;2023-06-22T06:09:14;100714.56;;;24.42;100.00
76124;BME280;65173;48.066;20.976;2023-06-22T06:12:17;100718.03;;;24.53;100.00
76124;BME280;65173;48.066;20.976;2023-06-22T06:15:19;100721.78;;;24.73;100.00
76124;BME280;65173;48.066;20.976;2023-06-22T06:18:22;100713.25;;;24.71;100.00
76124;BME280;65173;48.066;20.976;2023-06-22T06:21:25;100712.31;;;24.99;99.21
76124;BME280;65173;48.066;20.976;2023-06-22T06:35:00;100720.84;;;25.53;97.61
76124;BME280;65173;48.066;20.976;2023-06-22T07:18:26;100713.13;;;29.12;76.14
76124;BME280;65173;48.066;20.976;2023-06-22T07:21:29;100706.44;;;29.29;75.71
76124;BME280;65173;48.066;20.976;2023-06-22T07:24:31;100704.31;;;28.68;75.51
76124;BME280;65173;48.066;20.976;2023-06-22T07:27:39;100717.34;;;29.00;76.15
76124;BME280;65173;48.066;20.976;2023-06-22T07:30:45;100723.84;;;29.23;75.62
76124;BME280;65173;48.066;20.976;2023-06-22T07:44:36;100714.50;;;30.52;72.17
76124;BME280;65173;48.066;20.976;2023-06-22T07:47:38;100711.94;;;30.32;67.28
76124;BME280;65173;48.066;20.976;2023-06-22T07:50:43;100714.97;;;30.76;68.27
76124;BME280;65173;48.066;20.976;2023-06-22T07:53:46;100715.31;;;31.16;69.91
76124;BME280;65173;48.066;20.976;2023-06-22T07:56:49;100714.97;;;30.76;64.96
76124;BME280;65173;48.066;20.976;2023-06-22T07:59:51;100715.56;;;31.44;66.50
76124;BME280;65173;48.066;20.976;2023-06-22T08:02:54;100721.16;;;30.80;65.60
76124;BME280;65173;48.066;20.976;2023-06-22T08:05:57;100714.28;;;31.23;65.72
76124;BME280;65173;48.066;20.976;2023-06-22T08:09:00;100713.22;;;30.57;65.63
76124;BME280;65173;48.066;20.976;2023-06-22T08:12:03;100709.91;;;30.87;65.39
76124;BME280;65173;48.066;20.976;2023-06-22T08:15:06;100719.13;;;30.43;65.34
76124;BME280;65173;48.066;20.976;2023-06-22T08:18:09;100713.34;;;30.24;67.82
76124;BME280;65173;48.066;20.976;2023-06-22T08:21:12;100710.44;;;31.67;65.67
76124;BME280;65173;48.066;20.976;2023-06-22T08:24:15;100710.94;;;31.75;64.72
76124;BME280;65173;48.066;20.976;2023-06-22T08:27:18;100704.25;;;31.29;65.88
76124;BME280;65173;48.066;20.976;2023-06-22T08:30:23;100713.75;;;30.10;68.01
76124;BME280;65173;48.066;20.976;2023-06-22T08:33:26;100716.97;;;30.09;67.92
76124;BME280;65173;48.066;20.976;2023-06-22T08:36:30;100715.44;;;31.47;66.30
76124;BME280;65173;48.066;20.976;2023-06-22T08:39:35;100715.06;;;31.70;62.48
76124;BME280;65173;48.066;20.976;2023-06-22T08:42:40;100732.03;;;30.17;68.37
76124;BME280;65173;48.066;20.976;2023-06-22T08:45:44;100720.00;;;31.28;64.88
76124;BME280;65173;48.066;20.976;2023-06-22T08:48:47;100723.31;;;32.14;64.17
76124;BME280;65173;48.066;20.976;2023-06-22T08:51:49;100724.53;;;32.13;63.15
76124;BME280;65173;48.066;20.976;2023-06-22T08:54:54;100719.59;;;32.61;61.11
76124;BME280;65173;48.066;20.976;2023-06-22T08:57:57;100716.81;;;33.32;60.59
76124;BME280;65173;48.066;20.976;2023-06-22T09:01:00;100714.75;;;33.23;60.85
76124;BME280;65173;48.066;20.976;2023-06-22T09:04:03;100715.63;;;32.09;59.64
76124;BME280;65173;48.066;20.976;2023-06-22T09:07:08;100717.13;;;32.54;58.56
76124;BME280;65173;48.066;20.976;2023-06-22T09:10:10;100717.19;;;31.88;61.58
76124;BME280;65173;48.066;20.976;2023-06-22T09:13:13;100713.09;;;33.26;58.57
76124;BME280;65173;48.066;20.976;2023-06-22T09:16:16;100711.97;;;33.05;59.34
76124;BME280;65173;48.066;20.976;2023-06-22T09:19:19;100713.13;;;33.71;56.41
76124;BME280;65173;48.066;20.976;2023-06-22T09:22:21;100711.09;;;31.24;61.41
76124;BME280;65173;48.066;20.976;2023-06-22T09:25:24;100697.25;;;32.06;61.21
76124;BME280;65173;48.066;20.976;2023-06-22T09:28:27;100700.81;;;33.36;56.91
76124;BME280;65173;48.066;20.976;2023-06-22T09:31:29;100698.53;;;33.71;56.33
76124;BME280;65173;48.066;20.976;2023-06-22T09:34:32;100696.28;;;32.53;56.92
76124;BME280;65173;48.066;20.976;2023-06-22T09:37:35;100700.88;;;33.82;56.39
76124;BME280;65173;48.066;20.976;2023-06-22T09:40:38;100699.91;;;34.03;54.69
76124;BME280;65173;48.066;20.976;2023-06-22T09:43:42;100691.44;;;33.24;56.41
76124;BME280;65173;48.066;20.976;2023-06-22T09:46:45;100689.91;;;33.32;55.87
76124;BME280;65173;48.066;20.976;2023-06-22T09:49:51;100694.34;;;34.21;55.81
76124;BME280;65173;48.066;20.976;2023-06-22T09:53:12;100686.28;;;32.77;56.10
76124;BME280;65173;48.066;20.976;2023-06-22T09:56:15;100689.97;;;32.52;57.20
76124;BME280;65173;48.066;20.976;2023-06-22T09:59:18;100683.56;;;33.04;58.68
76124;BME280;65173;48.066;20.976;2023-06-22T10:02:20;100679.81;;;32.80;58.20
76124;BME280;65173;48.066;20.976;2023-06-22T10:05:24;100677.13;;;32.27;57.99
76124;BME280;65173;48.066;20.976;2023-06-22T10:08:27;100690.25;;;33.80;56.96
76124;BME280;65173;48.066;20.976;2023-06-22T10:11:30;100687.31;;;34.53;55.30
76124;BME280;65173;48.066;20.976;2023-06-22T10:14:33;100679.34;;;34.79;53.90
76124;BME280;65173;48.066;20.976;2023-06-22T10:17:36;100688.22;;;33.53;54.26
76124;BME280;65173;48.066;20.976;2023-06-22T10:20:39;100677.53;;;35.00;51.67
76124;BME280;65173;48.066;20.976;2023-06-22T10:23:41;100671.84;;;35.27;50.00
76124;BME280;65173;48.066;20.976;2023-06-22T10:26:44;100688.16;;;34.26;51.81
76124;BME280;65173;48.066;20.976;2023-06-22T10:29:47;100681.69;;;35.28;51.10
76124;BME280;65173;48.066;20.976;2023-06-22T10:32:49;100677.78;;;35.88;47.71
76124;BME280;65173;48.066;20.976;2023-06-22T10:35:52;100678.13;;;36.55;44.55
76124;BME280;65173;48.066;20.976;2023-06-22T10:38:55;100677.69;;;36.27;46.74
76124;BME280;65173;48.066;20.976;2023-06-22T10:41:58;100675.41;;;35.96;47.79
76124;BME280;65173;48.066;20.976;2023-06-22T10:45:00;100678.09;;;36.69;48.23
76124;BME280;65173;48.066;20.976;2023-06-22T10:48:03;100681.03;;;36.31;47.02
76124;BME280;65173;48.066;20.976;2023-06-22T10:51:06;100675.50;;;35.48;46.54
76124;BME280;65173;48.066;20.976;2023-06-22T10:54:09;100679.66;;;33.78;49.72
76124;BME280;65173;48.066;20.976;2023-06-22T10:57:11;100676.25;;;34.53;47.40
76124;BME280;65173;48.066;20.976;2023-06-22T11:00:14;100667.06;;;34.71;50.98
76124;BME280;65173;48.066;20.976;2023-06-22T11:03:18;100665.56;;;34.61;48.46
76124;BME280;65173;48.066;20.976;2023-06-22T11:06:21;100668.56;;;34.48;47.52
76124;BME280;65173;48.066;20.976;2023-06-22T11:09:23;100659.25;;;34.69;48.21
76124;BME280;65173;48.066;20.976;2023-06-22T11:12:30;100672.06;;;35.53;47.56
76124;BME280;65173;48.066;20.976;2023-06-22T11:15:33;100672.06;;;36.56;45.17
76124;BME280;65173;48.066;20.976;2023-06-22T11:18:36;100672.84;;;36.57;43.64
76124;BME280;65173;48.066;20.976;2023-06-22T11:21:39;100660.69;;;34.89;47.22
76124;BME280;65173;48.066;20.976;2023-06-22T11:24:42;100667.88;;;34.20;46.84
76124;BME280;65173;48.066;20.976;2023-06-22T11:27:44;100656.31;;;34.97;45.61
76124;BME280;65173;48.066;20.976;2023-06-22T11:30:47;100662.09;;;36.29;47.57
76124;BME280;65173;48.066;20.976;2023-06-22T11:33:50;100645.00;;;35.48;45.47
76124;BME280;65173;48.066;20.976;2023-06-22T11:36:53;100654.63;;;36.56;44.76
76124;BME280;65173;48.066;20.976;2023-06-22T11:39:55;100641.44;;;36.85;43.42
76124;BME280;65173;48.066;20.976;2023-06-22T11:43:08;100648.47;;;36.81;45.25
76124;BME280;65173;48.066;20.976;2023-06-22T11:46:11;100650.13;;;37.13;44.70
76124;BME280;65173;48.066;20.976;2023-06-22T11:49:13;100638.31;;;35.40;44.22
76124;BME280;65173;48.066;20.976;2023-06-22T11:52:16;100633.34;;;34.81;47.01
76124;BME280;65173;48.066;20.976;2023-06-22T11:55:20;100632.53;;;35.97;45.97
76124;BME280;65173;48.066;20.976;2023-06-22T11:58:22;100635.28;;;34.90;45.92
76124;BME280;65173;48.066;20.976;2023-06-22T12:01:25;100634.44;;;34.75;46.46
76124;BME280;65173;48.066;20.976;2023-06-22T12:04:28;100626.81;;;35.32;45.85
76124;BME280;65173;48.066;20.976;2023-06-22T12:07:30;100624.41;;;35.78;47.93
76124;BME280;65173;48.066;20.976;2023-06-22T12:10:33;100617.84;;;35.52;45.90
76124;BME280;65173;48.066;20.976;2023-06-22T12:13:36;100623.03;;;35.74;45.10
76124;BME280;65173;48.066;20.976;2023-06-22T12:16:39;100608.38;;;36.32;43.70
76124;BME280;65173;48.066;20.976;2023-06-22T12:19:42;100604.03;;;35.96;44.75
76124;BME280;65173;48.066;20.976;2023-06-22T12:22:44;100602.97;;;35.94;45.11
76124;BME280;65173;48.066;20.976;2023-06-22T12:25:47;100604.47;;;36.24;46.09
76124;BME280;65173;48.066;20.976;2023-06-22T12:28:50;100596.63;;;36.08;44.26
76124;BME280;65173;48.066;20.976;2023-06-22T12:31:53;100604.28;;;35.39;45.21
76124;BME280;65173;48.066;20.976;2023-06-22T12:34:56;100601.50;;;36.28;46.42
76124;BME280;65173;48.066;20.976;2023-06-22T12:37:59;100590.81;;;35.08;44.42
76124;BME280;65173;48.066;20.976;2023-06-22T12:41:01;100576.63;;;35.30;46.87
76124;BME280;65173;48.066;20.976;2023-06-22T12:44:04;100581.41;;;36.03;45.09
76124;BME280;65173;48.066;20.976;2023-06-22T12:47:08;100569.88;;;34.93;45.43
76124;BME280;65173;48.066;20.976;2023-06-22T12:50:11;100574.38;;;34.24;48.27
76124;BME280;65173;48.066;20.976;2023-06-22T12:53:14;100572.41;;;34.81;47.69
76124;BME280;65173;48.066;20.976;2023-06-22T12:56:16;100573.16;;;35.21;47.31
76124;BME280;65173;48.066;20.976;2023-06-22T12:59:19;100566.22;;;35.99;43.63
76124;BME280;65173;48.066;20.976;2023-06-22T13:02:22;100555.44;;;35.42;44.52
76124;BME280;65173;48.066;20.976;2023-06-22T13:05:25;100562.09;;;35.50;43.98
76124;BME280;65173;48.066;20.976;2023-06-22T13:08:27;100562.88;;;35.36;45.70
76124;BME280;65173;48.066;20.976;2023-06-22T13:11:50;100558.06;;;35.22;46.81
76124;BME280;65173;48.066;20.976;2023-06-22T13:14:54;100549.66;;;35.31;45.33
76124;BME280;65173;48.066;20.976;2023-06-22T13:17:57;100544.38;;;36.06;44.05
76124;BME280;65173;48.066;20.976;2023-06-22T13:20:59;100541.84;;;36.23;44.70
76124;BME280;65173;48.066;20.976;2023-06-22T13:24:02;100540.09;;;35.91;45.24
76124;BME280;65173;48.066;20.976;2023-06-22T13:27:05;100546.91;;;35.75;43.99
76124;BME280;65173;48.066;20.976;2023-06-22T13:30:09;100542.84;;;35.17;45.87
76124;BME280;65173;48.066;20.976;2023-06-22T13:33:16;100544.69;;;34.58;47.95
76124;BME280;65173;48.066;20.976;2023-06-22T13:36:19;100547.78;;;34.98;45.02
76124;BME280;65173;48.066;20.976;2023-06-22T13:39:22;100547.91;;;35.19;44.82
76124;BME280;65173;48.066;20.976;2023-06-22T13:42:25;100538.41;;;35.34;44.85
76124;BME280;65173;48.066;20.976;2023-06-22T13:45:27;100540.34;;;33.58;44.88
76124;BME280;65173;48.066;20.976;2023-06-22T13:48:30;100534.63;;;33.79;46.15
76124;BME280;65173;48.066;20.976;2023-06-22T13:51:33;100537.56;;;33.58;47.29
76124;BME280;65173;48.066;20.976;2023-06-22T13:54:36;100537.41;;;33.61;48.45
76124;BME280;65173;48.066;20.976;2023-06-22T13:57:39;100540.78;;;33.65;46.56
76124;BME280;65173;48.066;20.976;2023-06-22T14:00:42;100530.78;;;34.10;46.84
76124;BME280;65173;48.066;20.976;2023-06-22T14:03:45;100519.84;;;34.48;46.83
76124;BME280;65173;48.066;20.976;2023-06-22T14:06:49;100520.72;;;34.78;46.17
76124;BME280;65173;48.066;20.976;2023-06-22T14:09:52;100522.25;;;34.79;46.04
76124;BME280;65173;48.066;20.976;2023-06-22T14:12:54;100516.56;;;34.98;46.13
76124;BME280;65173;48.066;20.976;2023-06-22T14:15:57;100516.84;;;33.62;47.37
76124;BME280;65173;48.066;20.976;2023-06-22T14:19:00;100516.31;;;33.03;47.63
76124;BME280;65173;48.066;20.976;2023-06-22T14:22:03;100497.81;;;33.55;46.96
76124;BME280;65173;48.066;20.976;2023-06-22T14:25:06;100490.88;;;34.02;48.85
76124;BME280;65173;48.066;20.976;2023-06-22T14:28:09;100490.50;;;34.18;48.80
76124;BME280;65173;48.066;20.976;2023-06-22T14:31:12;100485.75;;;34.09;48.03
76124;BME280;65173;48.066;20.976;2023-06-22T14:34:15;100479.00;;;33.68;50.42
76124;BME280;65173;48.066;20.976;2023-06-22T14:37:18;100477.03;;;33.78;48.47
76124;BME280;65173;48.066;20.976;2023-06-22T14:40:20;100485.16;;;32.85;50.25
76124;BME280;65173;48.066;20.976;2023-06-22T14:43:28;100476.06;;;32.29;50.40
76124;BME280;65173;48.066;20.976;2023-06-22T14:46:30;100477.47;;;32.61;49.33
76124;BME280;65173;48.066;20.976;2023-06-22T14:49:33;100468.38;;;33.25;50.75
76124;BME280;65173;48.066;20.976;2023-06-22T14:52:36;100473.78;;;33.10;48.98
76124;BME280;65173;48.066;20.976;2023-06-22T14:55:39;100471.78;;;33.20;48.63
76124;BME280;65173;48.066;20.976;2023-06-22T14:58:42;100465.06;;;33.63;48.47
76124;BME280;65173;48.066;20.976;2023-06-22T15:01:49;100456.72;;;33.39;45.37
76124;BME280;65173;48.066;20.976;2023-06-22T15:04:52;100459.78;;;33.83;46.60
76124;BME280;65173;48.066;20.976;2023-06-22T15:07:56;100458.69;;;34.13;47.07
76124;BME280;65173;48.066;20.976;2023-06-22T15:10:59;100454.41;;;34.12;46.49
76124;BME280;65173;48.066;20.976;2023-06-22T15:14:03;100453.50;;;33.73;48.11
76124;BME280;65173;48.066;20.976;2023-06-22T15:17:07;100464.56;;;33.73;48.04
76124;BME280;65173;48.066;20.976;2023-06-22T15:20:13;100463.31;;;33.41;47.15
76124;BME280;65173;48.066;20.976;2023-06-22T15:23:17;100453.22;;;33.29;47.05
76124;BME280;65173;48.066;20.976;2023-06-22T15:26:20;100459.88;;;32.95;47.97
76124;BME280;65173;48.066;20.976;2023-06-22T15:29:22;100465.66;;;33.06;49.01
76124;BME280;65173;48.066;20.976;2023-06-22T15:32:25;100458.09;;;33.34;48.85
76124;BME280;65173;48.066;20.976;2023-06-22T15:35:28;100455.69;;;33.27;49.04
76124;BME280;65173;48.066;20.976;2023-06-22T15:38:32;100456.47;;;33.09;49.72
76124;BME280;65173;48.066;20.976;2023-06-22T15:41:34;100462.44;;;32.62;49.77
76124;BME280;65173;48.066;20.976;2023-06-22T15:44:37;100471.19;;;32.42;50.98
76124;BME280;65173;48.066;20.976;2023-06-22T15:47:40;100463.53;;;31.97;51.15
76124;BME280;65173;48.066;20.976;2023-06-22T15:50:42;100470.41;;;31.93;52.56
76124;BME280;65173;48.066;20.976;2023-06-22T15:53:45;100470.53;;;32.29;52.54
76124;BME280;65173;48.066;20.976;2023-06-22T15:56:49;100466.41;;;32.43;50.74
76124;BME280;65173;48.066;20.976;2023-06-22T15:59:51;100468.63;;;32.08;52.85
76124;BME280;65173;48.066;20.976;2023-06-22T16:02:54;100471.63;;;32.32;53.80
76124;BME280;65173;48.066;20.976;2023-06-22T16:05:57;100478.53;;;32.36;53.60
76124;BME280;65173;48.066;20.976;2023-06-22T16:09:00;100477.81;;;32.05;52.66
76124;BME280;65173;48.066;20.976;2023-06-22T16:12:03;100475.44;;;31.54;54.93
76124;BME280;65173;48.066;20.976;2023-06-22T16:15:07;100468.09;;;31.51;55.60
76124;BME280;65173;48.066;20.976;2023-06-22T16:18:10;100473.53;;;31.42;55.01
76124;BME280;65173;48.066;20.976;2023-06-22T16:21:13;100472.09;;;31.59;53.94
76124;BME280;65173;48.066;20.976;2023-06-22T16:24:15;100476.63;;;31.44;55.77
76124;BME280;65173;48.066;20.976;2023-06-22T16:27:18;100477.78;;;31.65;52.86
76124;BME280;65173;48.066;20.976;2023-06-22T16:30:21;100477.25;;;31.48;53.30
76124;BME280;65173;48.066;20.976;2023-06-22T16:33:24;100484.31;;;31.27;56.03
76124;BME280;65173;48.066;20.976;2023-06-22T16:36:27;100481.50;;;31.18;53.98
76124;BME280;65173;48.066;20.976;2023-06-22T16:39:30;100480.22;;;31.32;54.66
76124;BME280;65173;48.066;20.976;2023-06-22T16:42:33;100476.47;;;31.17;53.84
76124;BME280;65173;48.066;20.976;2023-06-22T16:45:36;100486.19;;;31.30;55.14
76124;BME280;65173;48.066;20.976;2023-06-22T16:48:39;100479.72;;;31.24;56.14
76124;BME280;65173;48.066;20.976;2023-06-22T16:51:42;100485.19;;;31.15;56.47